createdAt,value
2023-01-22T00:01:45.321Z,14.77
2023-01-22T00:04:11.694Z,18.83
2023-01-22T00:06:38.086Z,17.85
2023-01-22T00:09:04.469Z,15.88
2023-01-22T00:11:30.839Z,14.77
2023-01-22T00:13:57.212Z,16.55
2023-01-22T00:16:23.628Z,15.80
2023-01-22T00:18:50.050Z,12.88
2023-01-22T00:21:16.481Z,13.77
2023-01-22T00:23:42.888Z,14.50
2023-01-22T00:26:09.264Z,15.43
2023-01-22T00:28:35.700Z,12.48
2023-01-22T00:31:02.249Z,12.25
2023-01-22T00:33:28.728Z,13.77
2023-01-22T00:35:55.157Z,13.35
2023-01-22T00:38:21.533Z,16.42
2023-01-22T00:40:47.936Z,13.70
2023-01-22T00:43:14.315Z,16.58
2023-01-22T00:45:40.690Z,14.43
2023-01-22T00:48:07.136Z,14.75
2023-01-22T00:50:33.542Z,13.57
2023-01-22T00:52:59.982Z,16.80
2023-01-22T00:55:26.409Z,17.20
2023-01-22T00:57:52.796Z,16.98
2023-01-22T01:00:19.557Z,16.60
2023-01-22T01:02:46.261Z,15.65
2023-01-22T01:05:12.697Z,18.75
2023-01-22T01:07:39.137Z,15.02
2023-01-22T01:10:05.521Z,14.63
2023-01-22T01:12:31.946Z,13.75
2023-01-22T01:14:58.387Z,13.38
2023-01-22T01:17:24.819Z,13.40
2023-01-22T01:19:51.242Z,12.95
2023-01-22T01:22:17.632Z,11.70
2023-01-22T01:24:44.044Z,13.00
2023-01-22T01:27:10.424Z,13.40
2023-01-22T01:29:36.869Z,12.10
2023-01-22T01:32:03.279Z,12.20
2023-01-22T01:34:29.738Z,13.43
2023-01-22T01:36:56.182Z,13.45
2023-01-22T01:39:22.605Z,12.40
2023-01-22T01:41:49.041Z,10.38
2023-01-22T01:44:15.466Z,15.60
2023-01-22T01:46:41.984Z,12.05
2023-01-22T01:49:08.404Z,13.02
2023-01-22T01:51:34.834Z,9.60
2023-01-22T01:54:01.225Z,12.18
2023-01-22T01:56:27.601Z,13.10
2023-01-22T01:58:54.050Z,11.68
2023-01-22T02:01:20.480Z,11.38
2023-01-22T02:03:46.868Z,13.48
2023-01-22T02:06:13.299Z,14.25
2023-01-22T02:08:39.737Z,16.85
2023-01-22T02:11:06.112Z,16.77
2023-01-22T02:13:32.534Z,18.30
2023-01-22T02:15:58.995Z,18.48
2023-01-22T02:18:25.425Z,18.77
2023-01-22T02:20:51.823Z,17.38
2023-01-22T02:23:18.237Z,17.27
2023-01-22T02:25:44.664Z,18.27
2023-01-22T02:28:11.100Z,19.52
2023-01-22T02:30:37.595Z,18.38
2023-01-22T02:33:04.050Z,20.20
2023-01-22T02:35:30.513Z,18.50
2023-01-22T02:37:56.976Z,15.00
2023-01-22T02:40:23.416Z,17.10
2023-01-22T02:42:49.852Z,14.60
2023-01-22T02:45:16.296Z,17.38
2023-01-22T02:47:42.705Z,17.15
2023-01-22T02:50:09.139Z,17.40
2023-01-22T02:52:35.573Z,15.32
2023-01-22T02:55:02.004Z,16.40
2023-01-22T02:57:28.432Z,15.93
2023-01-22T02:59:54.828Z,12.80
2023-01-22T03:02:21.308Z,13.80
2023-01-22T03:04:47.709Z,16.73
2023-01-22T03:07:14.136Z,14.00
2023-01-22T03:09:40.664Z,15.73
2023-01-22T03:12:07.083Z,14.52
2023-01-22T03:14:33.549Z,17.65
2023-01-22T03:16:59.945Z,15.80
2023-01-22T03:19:26.316Z,12.32
2023-01-22T03:21:52.724Z,12.20
2023-01-22T03:24:19.163Z,13.18
2023-01-22T03:26:45.537Z,11.93
2023-01-22T03:29:11.957Z,11.20
2023-01-22T03:31:38.495Z,11.65
2023-01-22T03:34:04.985Z,11.60
2023-01-22T03:36:31.416Z,12.75
2023-01-22T03:38:57.800Z,13.27
2023-01-22T03:41:24.170Z,15.77
2023-01-22T03:43:50.564Z,13.73
2023-01-22T03:46:17.007Z,11.68
2023-01-22T03:48:43.465Z,11.50
2023-01-22T03:51:09.981Z,11.30
2023-01-22T03:53:36.387Z,15.02
2023-01-22T03:56:02.812Z,12.77
2023-01-22T03:58:29.238Z,14.10
2023-01-22T04:00:55.688Z,13.35
2023-01-22T04:03:22.123Z,13.35
2023-01-22T04:05:48.558Z,11.52
2023-01-22T04:08:15.001Z,13.70
2023-01-22T04:10:41.369Z,12.30
2023-01-22T04:13:07.741Z,11.00
2023-01-22T04:15:34.124Z,13.68
2023-01-22T04:18:00.699Z,15.00
2023-01-22T04:20:27.154Z,16.00
2023-01-22T04:22:53.527Z,15.48
2023-01-22T04:25:19.935Z,13.77
2023-01-22T04:27:46.310Z,14.05
2023-01-22T04:30:12.697Z,14.32
2023-01-22T04:32:39.067Z,12.57
2023-01-22T04:35:05.447Z,12.90
2023-01-22T04:37:31.807Z,12.57
2023-01-22T04:39:58.187Z,11.93
2023-01-22T04:42:24.622Z,13.20
2023-01-22T04:44:51.005Z,11.68
2023-01-22T04:47:17.432Z,12.98
2023-01-22T04:49:43.850Z,14.27
2023-01-22T04:52:10.273Z,16.10
2023-01-22T04:54:36.641Z,14.40
2023-01-22T04:57:03.006Z,12.95
2023-01-22T04:59:29.427Z,14.60
2023-01-22T05:01:55.817Z,14.63
2023-01-22T05:04:22.237Z,15.23
2023-01-22T05:06:48.661Z,14.18
2023-01-22T05:09:15.091Z,13.40
2023-01-22T05:11:41.474Z,13.10
2023-01-22T05:14:10.357Z,12.82
2023-01-22T05:16:36.942Z,14.60
2023-01-22T05:19:03.381Z,10.43
2023-01-22T05:21:29.776Z,12.27
2023-01-22T05:23:56.201Z,11.93
2023-01-22T05:26:22.572Z,11.73
2023-01-22T05:28:49.001Z,10.23
2023-01-22T05:31:15.441Z,9.70
2023-01-22T05:33:41.854Z,10.25
2023-01-22T05:36:08.300Z,10.48
2023-01-22T05:38:34.738Z,7.90
2023-01-22T05:41:01.164Z,10.05
2023-01-22T05:43:27.546Z,11.18
2023-01-22T05:45:53.934Z,10.20
2023-01-22T05:48:20.396Z,9.02
2023-01-22T05:50:46.862Z,9.85
2023-01-22T05:53:13.276Z,7.55
2023-01-22T05:55:39.695Z,6.45
2023-01-22T05:58:06.474Z,9.20
2023-01-22T06:00:32.931Z,9.85
2023-01-22T06:02:59.350Z,9.77
2023-01-22T06:05:25.856Z,11.35
2023-01-22T06:07:52.270Z,11.02
2023-01-22T06:10:18.919Z,11.13
2023-01-22T06:12:45.501Z,9.45
2023-01-22T06:15:11.880Z,8.63
2023-01-22T06:17:38.248Z,7.97
2023-01-22T06:20:04.695Z,7.20
2023-01-22T06:22:31.079Z,8.40
2023-01-22T06:24:57.521Z,6.93
2023-01-22T06:27:23.897Z,7.28
2023-01-22T06:29:50.343Z,9.88
2023-01-22T06:32:16.762Z,9.60
2023-01-22T06:34:43.135Z,7.50
2023-01-22T06:37:09.643Z,8.30
2023-01-22T06:39:36.021Z,9.57
2023-01-22T06:42:02.385Z,8.90
2023-01-22T06:44:28.751Z,9.80
2023-01-22T06:46:55.188Z,9.13
2023-01-22T06:49:21.630Z,7.18
2023-01-22T06:51:48.074Z,10.50
2023-01-22T06:54:14.482Z,11.88
2023-01-22T06:56:40.862Z,11.43
2023-01-22T06:59:07.243Z,9.57
2023-01-22T07:01:33.637Z,9.20
2023-01-22T07:04:00.083Z,8.43
2023-01-22T07:06:26.579Z,7.78
2023-01-22T07:08:52.999Z,8.07
2023-01-22T07:11:19.427Z,6.72
2023-01-22T07:13:45.851Z,7.22
2023-01-22T07:16:12.304Z,6.65
2023-01-22T07:18:38.747Z,6.00
2023-01-22T07:21:05.182Z,6.10
2023-01-22T07:23:31.632Z,6.80
2023-01-22T07:25:58.012Z,6.90
2023-01-22T07:28:24.399Z,6.75
2023-01-22T07:30:50.870Z,5.97
2023-01-22T07:33:17.302Z,6.30
2023-01-22T07:35:43.675Z,8.02
2023-01-22T07:38:10.093Z,7.15
2023-01-22T07:40:36.531Z,7.78
2023-01-22T07:43:02.951Z,6.50
2023-01-22T07:45:29.333Z,6.50
2023-01-22T07:47:55.717Z,7.32
2023-01-22T07:50:22.090Z,7.07
2023-01-22T07:52:48.456Z,7.38
2023-01-22T07:55:14.825Z,7.18
2023-01-22T07:57:41.197Z,7.78
2023-01-22T08:00:07.625Z,7.50
2023-01-22T08:02:34.021Z,7.43
2023-01-22T08:05:00.395Z,6.90
2023-01-22T08:07:27.868Z,7.57
2023-01-22T08:09:54.305Z,6.35
2023-01-22T08:12:20.672Z,7.03
2023-01-22T08:14:47.089Z,8.25
2023-01-22T08:17:13.521Z,8.38
2023-01-22T08:19:39.969Z,7.05
2023-01-22T08:22:06.359Z,7.03
2023-01-22T08:24:32.737Z,6.65
2023-01-22T08:26:59.165Z,6.47
2023-01-22T08:29:25.621Z,6.88
2023-01-22T08:31:52.138Z,9.65
2023-01-22T08:34:18.609Z,7.00
2023-01-22T08:36:44.970Z,7.70
2023-01-22T08:39:11.364Z,8.50
2023-01-22T08:41:37.727Z,6.65
2023-01-22T08:44:04.166Z,6.03
2023-01-22T08:46:30.558Z,7.18
2023-01-22T08:48:56.959Z,8.45
2023-01-22T08:51:23.496Z,7.00
2023-01-22T08:53:49.952Z,7.95
2023-01-22T08:56:16.319Z,9.40
2023-01-22T08:58:42.687Z,7.10
2023-01-22T09:01:09.135Z,10.73
2023-01-22T09:03:35.551Z,6.95
2023-01-22T09:06:01.920Z,6.82
2023-01-22T09:08:28.357Z,6.28
2023-01-22T09:10:54.780Z,7.22
2023-01-22T09:13:21.223Z,6.35
2023-01-22T09:15:47.667Z,7.30
2023-01-22T09:18:14.108Z,7.45
2023-01-22T09:20:40.499Z,5.90
2023-01-22T09:23:06.935Z,6.78
2023-01-22T09:25:33.381Z,8.27
2023-01-22T09:27:59.792Z,6.50
2023-01-22T09:30:26.205Z,7.45
2023-01-22T09:32:52.641Z,7.28
2023-01-22T09:35:19.032Z,8.50
2023-01-22T09:37:45.456Z,8.45
2023-01-22T09:40:11.832Z,7.28
2023-01-22T09:42:38.205Z,8.82
2023-01-22T09:45:04.640Z,6.70
2023-01-22T09:47:31.022Z,7.82
2023-01-22T09:49:57.489Z,6.78
2023-01-22T09:52:23.859Z,7.43
2023-01-22T09:54:50.230Z,7.82
2023-01-22T09:57:30.734Z,7.07
2023-01-22T09:59:58.307Z,8.77
2023-01-22T10:02:24.856Z,7.22
2023-01-22T10:04:51.259Z,8.32
2023-01-22T10:07:17.675Z,9.48
2023-01-22T10:09:44.112Z,7.85
2023-01-22T10:12:10.500Z,9.50
2023-01-22T10:14:36.876Z,10.55
2023-01-22T10:17:03.257Z,8.93
2023-01-22T10:19:29.692Z,8.38
2023-01-22T10:21:56.123Z,7.82
2023-01-22T10:24:22.567Z,8.75
2023-01-22T10:26:48.965Z,6.63
2023-01-22T10:29:15.343Z,7.68
2023-01-22T10:31:42.070Z,7.75
2023-01-22T10:34:08.597Z,9.05
2023-01-22T10:36:35.029Z,9.27
2023-01-22T10:39:01.460Z,8.20
2023-01-22T10:41:27.853Z,10.32
2023-01-22T10:43:54.291Z,8.65
2023-01-22T10:46:20.756Z,7.80
2023-01-22T10:48:47.213Z,11.85
2023-01-22T10:51:13.657Z,9.10
2023-01-22T10:53:40.047Z,9.95
2023-01-22T10:56:06.476Z,9.10
2023-01-22T10:58:32.921Z,10.05
2023-01-22T11:00:59.468Z,12.40
2023-01-22T11:03:26.932Z,7.53
2023-01-22T11:05:53.364Z,8.13
2023-01-22T11:08:19.791Z,8.00
2023-01-22T11:10:46.195Z,7.97
2023-01-22T11:13:12.641Z,9.00
2023-01-22T11:15:39.084Z,9.23
2023-01-22T11:18:05.553Z,9.15
2023-01-22T11:20:32.030Z,8.75
2023-01-22T11:22:58.478Z,7.57
2023-01-22T11:25:24.859Z,10.40
2023-01-22T11:27:51.236Z,8.32
2023-01-22T11:30:20.467Z,9.43
2023-01-22T11:32:47.607Z,8.68
2023-01-22T11:35:14.066Z,7.63
2023-01-22T11:37:40.473Z,9.23
2023-01-22T11:40:06.848Z,9.85
2023-01-22T11:42:33.238Z,9.18
2023-01-22T11:44:59.624Z,8.77
2023-01-22T11:47:26.047Z,8.07
2023-01-22T11:49:52.493Z,10.15
2023-01-22T11:52:18.886Z,9.73
2023-01-22T11:54:45.273Z,8.10
2023-01-22T11:57:11.715Z,9.30
2023-01-22T11:59:38.120Z,10.73
2023-01-22T12:02:04.507Z,10.75
2023-01-22T12:04:30.989Z,8.48
2023-01-22T12:06:57.572Z,10.52
2023-01-22T12:09:24.020Z,9.20
2023-01-22T12:11:50.449Z,12.95
2023-01-22T12:14:16.881Z,9.52
2023-01-22T12:16:43.349Z,10.13
2023-01-22T12:19:09.733Z,9.50
2023-01-22T12:21:36.212Z,11.68
2023-01-22T12:24:02.801Z,13.90
2023-01-22T12:26:29.244Z,11.02
2023-01-22T12:28:55.649Z,10.80
2023-01-22T12:31:22.139Z,10.93
2023-01-22T12:33:48.619Z,9.65
2023-01-22T12:36:15.063Z,11.52
2023-01-22T12:38:41.437Z,10.48
2023-01-22T12:41:07.883Z,11.85
2023-01-22T12:43:34.335Z,10.73
2023-01-22T12:46:00.761Z,10.88
2023-01-22T12:48:27.376Z,9.80
2023-01-22T12:50:53.815Z,9.70
2023-01-22T12:53:20.221Z,14.50
2023-01-22T12:55:46.657Z,11.88
2023-01-22T12:58:13.049Z,10.52
2023-01-22T13:00:39.590Z,12.10
2023-01-22T13:03:06.048Z,12.07
2023-01-22T13:05:32.429Z,9.45
2023-01-22T13:07:58.807Z,10.15
2023-01-22T13:10:25.257Z,8.75
2023-01-22T13:12:51.645Z,10.45
2023-01-22T13:15:18.027Z,7.05
2023-01-22T13:17:44.478Z,10.00
2023-01-22T13:20:10.933Z,11.50
2023-01-22T13:22:37.351Z,7.82
2023-01-22T13:25:03.755Z,10.55
2023-01-22T13:27:30.167Z,10.25
2023-01-22T13:29:56.669Z,11.05
2023-01-22T13:32:23.127Z,10.95
2023-01-22T13:34:49.508Z,9.45
2023-01-22T13:37:15.894Z,13.90
2023-01-22T13:39:42.387Z,10.68
2023-01-22T13:42:10.441Z,10.63
2023-01-22T13:44:38.651Z,10.40
2023-01-22T13:47:05.071Z,11.32
2023-01-22T13:49:31.532Z,9.15
2023-01-22T13:51:57.971Z,9.18
2023-01-22T13:54:24.389Z,9.10
2023-01-22T13:56:50.816Z,9.70
2023-01-22T13:59:17.256Z,8.98
2023-01-22T14:01:43.653Z,9.60
2023-01-22T14:04:10.079Z,8.77
2023-01-22T14:06:36.517Z,8.77
2023-01-22T14:09:02.899Z,10.32
2023-01-22T14:11:29.328Z,11.40
2023-01-22T14:13:55.721Z,11.93
2023-01-22T14:16:22.201Z,10.90
2023-01-22T14:18:48.640Z,12.20
2023-01-22T14:21:15.075Z,12.00
2023-01-22T14:23:41.458Z,11.40
2023-01-22T14:26:07.879Z,11.60
2023-01-22T14:28:34.263Z,11.43
2023-01-22T14:31:00.745Z,11.43
2023-01-22T14:33:27.390Z,11.50
2023-01-22T14:35:53.817Z,11.77
2023-01-22T14:38:20.274Z,7.97
2023-01-22T14:40:46.720Z,9.93
2023-01-22T14:43:13.111Z,10.27
2023-01-22T14:45:39.578Z,9.85
2023-01-22T14:48:06.010Z,9.02
2023-01-22T14:50:32.375Z,10.73
2023-01-22T14:52:58.825Z,11.10
2023-01-22T14:55:25.209Z,8.48
2023-01-22T14:57:51.660Z,10.68
2023-01-22T15:00:18.347Z,11.98
2023-01-22T15:02:44.850Z,9.63
2023-01-22T15:05:11.233Z,7.93
2023-01-22T15:07:37.653Z,9.23
2023-01-22T15:10:04.083Z,8.65
2023-01-22T15:12:30.470Z,9.55
2023-01-22T15:14:56.880Z,9.13
2023-01-22T15:17:23.308Z,9.45
2023-01-22T15:19:49.736Z,8.27
2023-01-22T15:22:16.192Z,7.57
2023-01-22T15:24:42.570Z,8.63
2023-01-22T15:27:08.957Z,7.65
2023-01-22T15:29:35.339Z,8.15
2023-01-22T15:32:01.778Z,8.00
2023-01-22T15:34:28.199Z,7.40
2023-01-22T15:36:54.640Z,8.77
2023-01-22T15:39:21.101Z,7.82
2023-01-22T15:41:47.491Z,9.18
2023-01-22T15:44:13.897Z,8.23
2023-01-22T15:46:40.275Z,8.77
2023-01-22T15:49:06.770Z,9.80
2023-01-22T15:51:33.191Z,9.15
2023-01-22T15:53:59.644Z,7.55
2023-01-22T15:56:26.023Z,9.23
2023-01-22T15:58:52.473Z,9.20
2023-01-22T16:01:18.867Z,8.80
2023-01-22T16:03:45.317Z,9.52
2023-01-22T16:06:11.791Z,10.73
2023-01-22T16:08:38.247Z,9.93
2023-01-22T16:11:04.668Z,8.73
2023-01-22T16:13:31.121Z,7.95
2023-01-22T16:15:57.746Z,11.48
2023-01-22T16:18:24.215Z,9.13
2023-01-22T16:20:50.641Z,10.50
2023-01-22T16:23:17.021Z,9.07
2023-01-22T16:25:43.399Z,8.65
2023-01-22T16:28:09.827Z,12.23
2023-01-22T16:30:36.243Z,8.68
2023-01-22T16:33:04.531Z,8.93
2023-01-22T16:35:31.035Z,11.77
2023-01-22T16:37:57.477Z,9.85
2023-01-22T16:40:23.935Z,9.60
2023-01-22T16:42:50.390Z,8.95
2023-01-22T16:45:16.773Z,10.75
2023-01-22T16:47:43.212Z,10.38
2023-01-22T16:50:09.648Z,7.88
2023-01-22T16:52:36.056Z,7.38
2023-01-22T16:55:02.493Z,9.02
2023-01-22T16:57:28.940Z,9.35
2023-01-22T16:59:55.380Z,7.63
2023-01-22T17:02:21.836Z,7.93
2023-01-22T17:04:48.282Z,7.90
2023-01-22T17:07:27.864Z,7.55
2023-01-22T17:09:58.975Z,8.70
2023-01-22T17:12:25.404Z,7.28
2023-01-22T17:14:51.804Z,9.35
2023-01-22T17:17:18.260Z,8.52
2023-01-22T17:19:44.636Z,7.03
2023-01-22T17:22:11.072Z,8.25
2023-01-22T17:24:37.507Z,8.07
2023-01-22T17:27:03.953Z,6.95
2023-01-22T17:29:30.380Z,9.23
2023-01-22T17:31:56.916Z,8.50
2023-01-22T17:34:23.405Z,8.48
2023-01-22T17:36:49.859Z,8.20
2023-01-22T17:39:16.250Z,7.95
2023-01-22T17:41:42.630Z,9.27
2023-01-22T17:44:09.032Z,7.97
2023-01-22T17:46:35.546Z,8.85
2023-01-22T17:49:02.100Z,8.57
2023-01-22T17:51:28.517Z,10.80
2023-01-22T17:53:54.959Z,7.97
2023-01-22T17:56:21.401Z,8.38
2023-01-22T17:58:47.841Z,7.55
2023-01-22T18:01:14.330Z,7.45
2023-01-22T18:03:40.741Z,7.53
2023-01-22T18:06:07.420Z,6.20
2023-01-22T18:08:33.923Z,7.13
2023-01-22T18:11:00.471Z,8.52
2023-01-22T18:13:26.911Z,9.68
2023-01-22T18:15:53.365Z,8.93
2023-01-22T18:18:19.758Z,7.60
2023-01-22T18:20:46.125Z,8.20
2023-01-22T18:23:12.509Z,7.05
2023-01-22T18:25:38.881Z,7.93
2023-01-22T18:28:05.306Z,6.82
2023-01-22T18:30:31.934Z,7.80
2023-01-22T18:32:58.446Z,9.73
2023-01-22T18:35:24.845Z,8.45
2023-01-22T18:37:51.277Z,8.32
2023-01-22T18:40:17.657Z,8.10
2023-01-22T18:42:44.099Z,7.90
2023-01-22T18:45:10.542Z,8.23
2023-01-22T18:47:36.947Z,8.98
2023-01-22T18:50:03.410Z,7.93
2023-01-22T18:52:29.848Z,10.20
2023-01-22T18:54:56.476Z,9.00
2023-01-22T18:57:23.051Z,10.43
2023-01-22T18:59:49.474Z,8.77
2023-01-22T19:02:15.863Z,9.98
2023-01-22T19:04:42.260Z,9.40
2023-01-22T19:07:08.721Z,8.95
2023-01-22T19:09:35.194Z,11.07
2023-01-22T19:12:01.709Z,9.82
2023-01-22T19:14:28.165Z,9.00
2023-01-22T19:16:54.600Z,11.38
2023-01-22T19:19:21.779Z,11.40
2023-01-22T19:21:48.184Z,9.32
2023-01-22T19:24:14.608Z,9.73
2023-01-22T19:26:40.995Z,9.23
2023-01-22T19:29:07.372Z,10.25
2023-01-22T19:31:33.907Z,10.50
2023-01-22T19:34:00.503Z,11.18
2023-01-22T19:36:26.941Z,10.55
2023-01-22T19:38:53.378Z,11.25
2023-01-22T19:41:19.812Z,8.82
2023-01-22T19:43:46.193Z,9.75
2023-01-22T19:46:12.663Z,10.93
2023-01-22T19:48:39.076Z,10.55
2023-01-22T19:51:05.615Z,10.52
2023-01-22T19:53:32.149Z,10.05
2023-01-22T19:55:58.549Z,10.35
2023-01-22T19:58:24.932Z,11.57
2023-01-22T20:00:51.382Z,12.43
2023-01-22T20:03:17.829Z,10.63
2023-01-22T20:05:44.233Z,9.98
2023-01-22T20:08:10.647Z,10.38
2023-01-22T20:10:37.033Z,9.40
2023-01-22T20:13:03.446Z,9.75
2023-01-22T20:15:29.879Z,8.13
2023-01-22T20:17:56.490Z,11.02
2023-01-22T20:20:23.085Z,11.02
2023-01-22T20:22:49.514Z,9.23
2023-01-22T20:25:15.909Z,11.90
2023-01-22T20:27:42.361Z,10.25
2023-01-22T20:30:08.765Z,10.45
2023-01-22T20:32:35.163Z,10.20
2023-01-22T20:35:01.571Z,7.38
2023-01-22T20:37:27.983Z,9.23
2023-01-22T20:39:54.409Z,9.85
2023-01-22T20:42:20.804Z,7.93
2023-01-22T20:44:47.500Z,8.38
2023-01-22T20:47:13.927Z,8.45
2023-01-22T20:49:40.391Z,9.88
2023-01-22T20:52:06.785Z,10.48
2023-01-22T20:54:34.030Z,9.10
2023-01-22T20:57:01.615Z,8.35
2023-01-22T20:59:28.025Z,7.50
2023-01-22T21:01:54.556Z,7.20
2023-01-22T21:04:20.998Z,7.88
2023-01-22T21:06:47.443Z,7.25
2023-01-22T21:09:13.885Z,7.40
2023-01-22T21:11:40.314Z,8.48
2023-01-22T21:14:06.756Z,7.07
2023-01-22T21:16:33.238Z,7.80
2023-01-22T21:18:59.657Z,7.90
2023-01-22T21:21:26.019Z,7.28
2023-01-22T21:23:52.446Z,6.93
2023-01-22T21:26:18.875Z,7.65
2023-01-22T21:28:45.253Z,8.23
2023-01-22T21:31:11.715Z,6.80
2023-01-22T21:33:38.129Z,7.60
2023-01-22T21:36:04.518Z,7.80
2023-01-22T21:38:30.886Z,10.45
2023-01-22T21:40:57.301Z,8.57
2023-01-22T21:43:23.728Z,10.50
2023-01-22T21:45:50.194Z,9.52
2023-01-22T21:48:16.601Z,8.43
2023-01-22T21:50:42.975Z,7.65
2023-01-22T21:53:09.344Z,9.15
2023-01-22T21:55:35.769Z,8.50
2023-01-22T21:58:02.205Z,10.65
2023-01-22T22:00:28.644Z,10.20
2023-01-22T22:02:55.085Z,14.65
2023-01-22T22:05:21.451Z,13.43
2023-01-22T22:07:47.824Z,12.80
2023-01-22T22:10:14.241Z,12.85
2023-01-22T22:12:40.624Z,13.18
2023-01-22T22:15:06.988Z,14.43
2023-01-22T22:17:33.404Z,13.63
2023-01-22T22:19:59.820Z,18.25
2023-01-22T22:22:26.254Z,19.85
2023-01-22T22:24:52.698Z,15.55
2023-01-22T22:27:19.180Z,13.63
2023-01-22T22:29:45.658Z,10.82
2023-01-22T22:32:12.037Z,11.73
2023-01-22T22:34:38.454Z,11.15
2023-01-22T22:37:04.876Z,11.38
2023-01-22T22:39:31.260Z,15.48
2023-01-22T22:41:57.711Z,13.38
2023-01-22T22:44:24.145Z,10.75
2023-01-22T22:46:50.583Z,14.77
2023-01-22T22:49:16.974Z,12.77
2023-01-22T22:51:43.352Z,10.27
2023-01-22T22:54:12.780Z,11.73
2023-01-22T22:56:39.204Z,16.40
2023-01-22T22:59:05.653Z,10.90
2023-01-22T23:01:32.091Z,11.68
2023-01-22T23:03:58.647Z,9.55
2023-01-22T23:06:25.141Z,10.77
2023-01-22T23:08:51.568Z,11.45
2023-01-22T23:11:18.017Z,13.30
2023-01-22T23:13:44.424Z,12.55
2023-01-22T23:16:10.852Z,10.55
2023-01-22T23:18:37.227Z,10.88
2023-01-22T23:21:03.649Z,10.30
2023-01-22T23:23:30.085Z,12.40
2023-01-22T23:25:56.515Z,13.18
2023-01-22T23:28:22.944Z,11.57
2023-01-22T23:30:49.489Z,10.43
2023-01-22T23:33:16.029Z,11.23
2023-01-22T23:35:42.459Z,10.07
2023-01-22T23:38:08.885Z,10.80
2023-01-22T23:40:35.310Z,10.32
2023-01-22T23:43:01.687Z,10.35
2023-01-22T23:45:28.068Z,11.55
2023-01-22T23:47:54.420Z,11.27
2023-01-22T23:50:21.150Z,11.30
2023-01-22T23:52:47.965Z,11.02
2023-01-22T23:55:14.337Z,10.38
2023-01-22T23:57:40.770Z,9.48
